createdAt,value
2022-12-18T00:01:49.616Z,42.35
2022-12-18T00:04:52.871Z,41.50
2022-12-18T00:07:56.045Z,46.35
2022-12-18T00:11:07.040Z,39.75
2022-12-18T00:14:14.412Z,42.40
2022-12-18T00:17:17.599Z,42.33
2022-12-18T00:20:26.527Z,45.07
2022-12-18T00:23:30.607Z,42.70
2022-12-18T00:26:35.811Z,41.28
2022-12-18T00:29:39.205Z,41.43
2022-12-18T00:32:42.363Z,40.67
2022-12-18T00:35:45.563Z,42.08
2022-12-18T00:38:50.005Z,40.28
2022-12-18T00:42:12.974Z,39.55
2022-12-18T00:45:16.584Z,46.45
2022-12-18T00:48:19.720Z,45.55
2022-12-18T00:51:23.060Z,49.73
2022-12-18T00:54:26.462Z,39.03
2022-12-18T00:57:29.620Z,39.38
2022-12-18T01:00:32.868Z,40.63
2022-12-18T01:03:36.787Z,45.42
2022-12-18T01:06:40.848Z,39.17
2022-12-18T01:09:44.004Z,40.92
2022-12-18T01:12:47.213Z,38.88
2022-12-18T01:15:53.820Z,40.22
2022-12-18T01:18:57.187Z,43.53
2022-12-18T01:22:00.472Z,36.93
2022-12-18T01:25:05.394Z,44.17
2022-12-18T01:28:08.599Z,40.20
2022-12-18T01:31:20.445Z,43.97
2022-12-18T01:34:24.336Z,40.25
2022-12-18T01:37:27.612Z,37.85
2022-12-18T01:40:30.794Z,43.30
2022-12-18T01:43:55.783Z,41.10
2022-12-18T01:46:58.983Z,44.42
2022-12-18T01:50:09.685Z,40.92
2022-12-18T01:53:18.107Z,44.60
2022-12-18T01:56:22.719Z,42.45
2022-12-18T01:59:26.746Z,46.30
2022-12-18T02:02:31.637Z,39.73
2022-12-18T02:05:55.557Z,40.70
2022-12-18T02:09:13.471Z,37.15
2022-12-18T02:12:26.232Z,40.35
2022-12-18T02:15:52.531Z,39.47
2022-12-18T02:19:07.396Z,35.08
2022-12-18T02:22:28.668Z,40.72
2022-12-18T02:25:53.739Z,35.50
2022-12-18T02:29:07.060Z,42.15
2022-12-18T02:32:18.877Z,37.83
2022-12-18T02:35:28.548Z,38.00
2022-12-18T02:38:36.026Z,36.33
2022-12-18T02:41:46.043Z,39.05
2022-12-18T02:44:52.081Z,41.63
2022-12-18T02:48:01.114Z,39.05
2022-12-18T02:51:04.379Z,39.35
2022-12-18T02:54:21.655Z,43.30
2022-12-18T02:57:45.732Z,40.03
2022-12-18T03:00:58.216Z,42.75
2022-12-18T03:04:11.092Z,40.50
2022-12-18T03:07:47.521Z,42.43
2022-12-18T03:11:04.087Z,41.30
2022-12-18T03:14:10.532Z,39.85
2022-12-18T03:17:18.591Z,36.88
2022-12-18T03:20:25.323Z,42.25
2022-12-18T03:23:35.648Z,45.75
2022-12-18T03:26:44.687Z,43.75
2022-12-18T03:29:56.634Z,44.20
2022-12-18T03:33:08.898Z,43.55
2022-12-18T03:36:14.411Z,43.92
2022-12-18T03:39:17.868Z,47.77
2022-12-18T03:42:38.941Z,44.55
2022-12-18T03:45:58.828Z,46.45
2022-12-18T03:49:23.611Z,48.63
2022-12-18T03:52:58.687Z,48.13
2022-12-18T03:56:03.952Z,47.47
2022-12-18T03:59:21.181Z,49.78
2022-12-18T04:02:26.324Z,48.43
2022-12-18T04:05:34.481Z,48.13
2022-12-18T04:08:39.641Z,50.70
2022-12-18T04:11:47.487Z,47.37
2022-12-18T04:14:52.191Z,54.65
2022-12-18T04:17:55.543Z,49.35
2022-12-18T04:21:01.388Z,54.90
2022-12-18T04:24:07.623Z,49.97
2022-12-18T04:27:13.596Z,51.25
2022-12-18T04:30:20.961Z,52.33
2022-12-18T04:33:24.371Z,53.87
2022-12-18T04:36:30.379Z,54.08
2022-12-18T04:39:33.610Z,57.80
2022-12-18T04:42:42.404Z,88.93
2022-12-18T04:45:45.608Z,48.72
2022-12-18T04:48:48.918Z,51.38
2022-12-18T04:51:52.680Z,52.60
2022-12-18T04:54:55.844Z,53.88
2022-12-18T04:57:59.011Z,49.33
2022-12-18T05:01:03.770Z,49.63
2022-12-18T05:04:07.198Z,62.30
2022-12-18T05:07:10.401Z,55.53
2022-12-18T05:10:14.001Z,55.67
2022-12-18T05:13:17.162Z,50.03
2022-12-18T05:16:20.392Z,55.88
2022-12-18T05:19:23.624Z,54.63
2022-12-18T05:22:26.958Z,56.25
2022-12-18T05:25:30.100Z,82.70
2022-12-18T05:28:36.352Z,51.42
2022-12-18T05:31:40.209Z,53.30
2022-12-18T05:34:43.444Z,51.43
2022-12-18T05:37:46.741Z,53.50
2022-12-18T05:40:53.563Z,52.55
2022-12-18T05:43:56.752Z,48.67
2022-12-18T05:46:59.940Z,54.30
2022-12-18T05:50:03.176Z,52.53
2022-12-18T05:53:07.334Z,51.88
2022-12-18T05:56:14.232Z,55.33
2022-12-18T05:59:17.891Z,51.40
2022-12-18T06:02:22.089Z,54.03
2022-12-18T06:05:25.709Z,56.67
2022-12-18T06:08:29.076Z,50.63
2022-12-18T06:11:32.310Z,54.30
2022-12-18T06:14:35.446Z,56.80
2022-12-18T06:17:38.739Z,51.85
2022-12-18T06:20:42.492Z,56.03
2022-12-18T06:23:45.689Z,54.88
2022-12-18T06:26:48.838Z,51.55
2022-12-18T06:29:52.147Z,56.22
2022-12-18T06:32:56.914Z,56.38
2022-12-18T06:36:06.447Z,55.40
2022-12-18T06:39:09.656Z,53.40
2022-12-18T06:42:13.246Z,55.03
2022-12-18T06:45:16.896Z,55.50
2022-12-18T06:48:21.065Z,56.83
2022-12-18T06:51:25.327Z,55.35
2022-12-18T06:54:28.605Z,55.47
2022-12-18T06:57:31.858Z,59.55
2022-12-18T07:00:35.293Z,54.38
2022-12-18T07:03:40.990Z,60.92
2022-12-18T07:06:44.495Z,57.20
2022-12-18T07:09:47.730Z,58.80
2022-12-18T07:12:51.119Z,58.40
2022-12-18T07:15:54.255Z,54.80
2022-12-18T07:18:57.862Z,57.05
2022-12-18T07:22:01.423Z,58.17
2022-12-18T07:25:04.960Z,60.63
2022-12-18T07:28:10.592Z,62.40
2022-12-18T07:31:22.844Z,56.60
2022-12-18T07:34:26.439Z,61.25
2022-12-18T07:37:29.665Z,58.93
2022-12-18T07:40:33.568Z,62.97
2022-12-18T07:43:37.577Z,61.70
2022-12-18T07:46:41.335Z,61.33
2022-12-18T07:49:44.535Z,61.03
2022-12-18T07:52:47.730Z,56.70
2022-12-18T07:56:25.583Z,59.67
2022-12-18T07:59:19.207Z,67.47
2022-12-18T08:02:22.678Z,60.47
2022-12-18T08:05:26.320Z,61.33
2022-12-18T08:08:30.376Z,60.10
2022-12-18T08:11:33.658Z,63.78
2022-12-18T08:14:36.776Z,60.97
2022-12-18T08:17:40.034Z,67.73
2022-12-18T08:20:45.998Z,71.75
2022-12-18T08:23:51.296Z,61.50
2022-12-18T08:27:20.769Z,60.10
2022-12-18T08:30:18.132Z,63.97
2022-12-18T08:33:21.456Z,58.85
2022-12-18T08:36:25.531Z,63.75
2022-12-18T08:39:30.269Z,64.70
2022-12-18T08:42:52.091Z,58.50
2022-12-18T08:45:55.868Z,65.00
2022-12-18T08:48:59.180Z,64.87
2022-12-18T08:52:03.776Z,72.18
2022-12-18T08:55:07.739Z,68.50
2022-12-18T08:58:10.959Z,62.25
2022-12-18T09:01:14.829Z,64.13
2022-12-18T09:04:18.272Z,69.25
2022-12-18T09:07:21.515Z,62.38
2022-12-18T09:10:24.658Z,57.87
2022-12-18T09:13:27.939Z,64.35
2022-12-18T09:16:32.996Z,61.08
2022-12-18T09:19:36.398Z,54.30
2022-12-18T09:22:42.566Z,57.58
2022-12-18T09:25:45.763Z,60.85
2022-12-18T09:28:50.056Z,61.47
2022-12-18T09:31:53.361Z,60.17
2022-12-18T09:34:56.593Z,61.55
2022-12-18T09:37:59.793Z,62.67
2022-12-18T09:41:32.054Z,65.07
2022-12-18T09:44:45.501Z,57.67
2022-12-18T09:47:51.091Z,58.80
2022-12-18T09:51:02.030Z,57.87
2022-12-18T09:54:11.706Z,52.70
2022-12-18T09:57:18.412Z,62.45
2022-12-18T10:00:24.424Z,53.20
2022-12-18T10:03:27.755Z,58.42
2022-12-18T10:07:13.554Z,56.95
2022-12-18T10:10:27.906Z,53.90
2022-12-18T10:14:05.663Z,46.07
2022-12-18T10:17:31.028Z,40.45
2022-12-18T10:20:46.065Z,36.83
2022-12-18T10:24:22.154Z,41.17
2022-12-18T10:27:27.798Z,40.42
2022-12-18T10:30:31.059Z,37.97
2022-12-18T10:33:35.481Z,34.47
2022-12-18T10:36:38.995Z,38.15
2022-12-18T10:39:42.294Z,34.40
2022-12-18T10:42:45.582Z,35.83
2022-12-18T10:46:14.270Z,33.40
2022-12-18T10:49:24.642Z,36.75
2022-12-18T10:52:28.411Z,38.28
2022-12-18T10:55:45.215Z,36.47
2022-12-18T10:59:05.664Z,34.50
2022-12-18T11:02:29.946Z,34.28
2022-12-18T11:05:37.877Z,35.80
2022-12-18T11:08:42.757Z,36.88
2022-12-18T11:11:54.604Z,41.08
2022-12-18T11:15:01.402Z,38.13
2022-12-18T11:18:04.711Z,34.77
2022-12-18T11:21:14.356Z,32.17
2022-12-18T11:24:23.358Z,34.45
2022-12-18T11:27:27.187Z,37.67
2022-12-18T11:30:31.651Z,33.20
2022-12-18T11:33:35.178Z,31.00
2022-12-18T11:36:43.071Z,31.02
2022-12-18T11:40:07.598Z,36.72
2022-12-18T11:43:23.824Z,32.70
2022-12-18T11:46:37.729Z,30.35
2022-12-18T11:49:42.602Z,32.43
2022-12-18T11:52:52.779Z,32.47
2022-12-18T11:56:23.148Z,32.92
2022-12-18T11:59:32.004Z,35.53
2022-12-18T12:02:38.303Z,35.92
2022-12-18T12:05:47.419Z,35.55
2022-12-18T12:09:12.961Z,36.58
2022-12-18T12:12:31.648Z,37.60
2022-12-18T12:15:41.708Z,37.22
2022-12-18T12:19:17.625Z,35.70
2022-12-18T12:22:31.589Z,35.07
2022-12-18T12:26:08.030Z,36.03
2022-12-18T12:29:48.923Z,36.58
2022-12-18T12:33:19.382Z,33.83
2022-12-18T12:36:40.260Z,32.92
2022-12-18T12:39:47.893Z,31.48
2022-12-18T12:43:20.744Z,29.70
2022-12-18T12:46:26.017Z,29.70
2022-12-18T12:49:36.322Z,29.92
2022-12-18T12:52:53.944Z,27.60
2022-12-18T12:55:58.048Z,24.60
2022-12-18T12:59:13.227Z,34.70
2022-12-18T13:02:25.646Z,30.70
2022-12-18T13:05:43.954Z,37.23
2022-12-18T13:09:01.642Z,30.55
2022-12-18T13:12:28.704Z,31.55
2022-12-18T13:15:40.030Z,27.90
2022-12-18T13:18:51.207Z,30.92
2022-12-18T13:21:56.887Z,31.00
2022-12-18T13:25:00.545Z,30.95
2022-12-18T13:28:03.750Z,26.50
2022-12-18T13:31:06.972Z,30.45
2022-12-18T13:34:28.436Z,32.53
2022-12-18T13:37:44.471Z,37.10
2022-12-18T13:40:47.671Z,35.13
2022-12-18T13:44:11.740Z,33.67
2022-12-18T13:47:38.441Z,34.50
2022-12-18T13:50:42.033Z,34.13
2022-12-18T13:53:51.390Z,32.28
2022-12-18T13:56:54.617Z,33.08
2022-12-18T13:59:59.487Z,38.33
2022-12-18T14:03:03.039Z,35.08
2022-12-18T14:06:09.977Z,37.22
2022-12-18T14:09:21.771Z,37.10
2022-12-18T14:12:46.647Z,34.13
2022-12-18T14:15:52.292Z,36.60
2022-12-18T14:19:08.436Z,38.08
2022-12-18T14:22:31.485Z,38.38
2022-12-18T14:25:34.684Z,39.97
2022-12-18T14:28:45.168Z,37.30
2022-12-18T14:32:05.160Z,36.27
2022-12-18T14:35:16.021Z,37.65
2022-12-18T14:38:24.473Z,41.17
2022-12-18T14:41:29.753Z,39.40
2022-12-18T14:44:44.172Z,43.55
2022-12-18T14:47:53.702Z,41.50
2022-12-18T14:51:17.727Z,37.30
2022-12-18T14:54:22.482Z,43.95
2022-12-18T14:57:33.031Z,40.95
2022-12-18T15:00:43.572Z,44.15
2022-12-18T15:03:46.915Z,44.23
2022-12-18T15:06:52.540Z,48.60
2022-12-18T15:10:35.432Z,44.70
2022-12-18T15:13:39.022Z,40.33
2022-12-18T15:16:55.508Z,46.45
2022-12-18T15:20:11.823Z,44.92
2022-12-18T15:23:29.180Z,48.55
2022-12-18T15:26:39.572Z,47.80
2022-12-18T15:29:43.373Z,46.08
2022-12-18T15:32:47.491Z,53.00
2022-12-18T15:35:58.882Z,49.13
2022-12-18T15:39:05.154Z,56.88
2022-12-18T15:42:29.700Z,53.40
2022-12-18T15:45:33.913Z,48.57
2022-12-18T15:49:02.686Z,49.47
2022-12-18T15:52:07.170Z,51.95
2022-12-18T15:55:37.831Z,56.67
2022-12-18T15:58:42.076Z,53.47
2022-12-18T16:01:48.276Z,52.60
2022-12-18T16:04:53.221Z,57.75
2022-12-18T16:07:56.792Z,59.63
2022-12-18T16:11:00.900Z,54.00
2022-12-18T16:14:27.726Z,57.20
2022-12-18T16:17:30.965Z,56.70
2022-12-18T16:20:35.625Z,56.88
2022-12-18T16:23:39.341Z,70.70
2022-12-18T16:26:43.172Z,55.15
2022-12-18T16:29:47.156Z,53.33
2022-12-18T16:32:51.237Z,53.50
2022-12-18T16:35:54.766Z,54.13
2022-12-18T16:39:01.984Z,56.13
2022-12-18T16:42:17.626Z,56.92
2022-12-18T16:45:21.126Z,56.38
2022-12-18T16:48:25.919Z,64.60
2022-12-18T16:51:29.980Z,58.53
2022-12-18T16:54:36.792Z,61.65
2022-12-18T16:57:40.227Z,63.50
2022-12-18T17:00:43.961Z,60.27
2022-12-18T17:03:56.625Z,51.35
2022-12-18T17:07:00.168Z,58.88
2022-12-18T17:10:03.889Z,54.13
2022-12-18T17:13:08.168Z,54.65
2022-12-18T17:16:12.069Z,59.15
2022-12-18T17:19:17.611Z,54.50
2022-12-18T17:22:23.402Z,58.65
2022-12-18T17:25:27.195Z,59.22
2022-12-18T17:28:31.289Z,66.35
2022-12-18T17:31:35.130Z,62.50
2022-12-18T17:34:38.808Z,63.58
2022-12-18T17:37:42.071Z,59.88
2022-12-18T17:40:46.554Z,62.07
2022-12-18T17:43:57.627Z,60.15
2022-12-18T17:47:01.536Z,59.28
2022-12-18T17:50:05.263Z,52.50
2022-12-18T17:53:08.823Z,53.70
2022-12-18T17:56:14.491Z,52.38
2022-12-18T17:59:18.319Z,49.90
2022-12-18T18:02:22.360Z,53.17
2022-12-18T18:05:27.441Z,57.75
2022-12-18T18:08:35.969Z,55.60
2022-12-18T18:11:58.304Z,54.67
2022-12-18T18:15:01.818Z,54.55
2022-12-18T18:18:05.932Z,50.88
2022-12-18T18:21:09.921Z,48.22
2022-12-18T18:24:16.569Z,51.42
2022-12-18T18:27:20.204Z,47.33
2022-12-18T18:30:23.848Z,53.38
2022-12-18T18:33:27.233Z,49.93
2022-12-18T18:36:30.881Z,45.10
2022-12-18T18:39:34.376Z,44.92
2022-12-18T18:42:38.375Z,44.43
2022-12-18T18:45:41.826Z,45.85
2022-12-18T18:48:49.921Z,45.03
2022-12-18T18:51:53.548Z,43.92
2022-12-18T18:55:12.704Z,43.55
2022-12-18T18:58:17.012Z,41.97
2022-12-18T19:01:22.367Z,41.58
2022-12-18T19:04:26.135Z,48.70
2022-12-18T19:07:31.134Z,44.28
2022-12-18T19:10:39.735Z,47.95
2022-12-18T19:13:45.940Z,45.47
2022-12-18T19:16:49.865Z,42.78
2022-12-18T19:19:53.396Z,49.20
2022-12-18T19:22:57.005Z,48.03
2022-12-18T19:26:27.017Z,46.65
2022-12-18T19:29:25.948Z,47.00
2022-12-18T19:32:29.858Z,43.67
2022-12-18T19:35:33.436Z,45.17
2022-12-18T19:38:39.597Z,45.72
2022-12-18T19:41:46.965Z,44.50
2022-12-18T19:44:50.408Z,44.23
2022-12-18T19:47:53.828Z,48.10
2022-12-18T19:50:57.281Z,43.38
2022-12-18T19:54:02.652Z,46.78
2022-12-18T19:57:07.820Z,50.63
2022-12-18T20:00:18.365Z,45.17
2022-12-18T20:03:30.417Z,50.38
2022-12-18T20:06:36.984Z,45.07
2022-12-18T20:09:40.321Z,47.83
2022-12-18T20:12:44.351Z,47.78
2022-12-18T20:15:47.736Z,48.53
2022-12-18T20:18:51.393Z,46.83
2022-12-18T20:21:58.663Z,47.35
2022-12-18T20:25:02.109Z,50.03
2022-12-18T20:28:05.928Z,41.83
2022-12-18T20:31:13.246Z,49.15
2022-12-18T20:34:17.689Z,48.58
2022-12-18T20:37:21.743Z,46.20
2022-12-18T20:40:26.306Z,48.00
2022-12-18T20:43:31.125Z,45.47
2022-12-18T20:46:34.308Z,49.67
2022-12-18T20:49:38.023Z,47.05
2022-12-18T20:52:43.387Z,47.42
2022-12-18T20:55:47.125Z,47.47
2022-12-18T20:58:54.816Z,45.80
2022-12-18T21:01:58.429Z,50.17
2022-12-18T21:05:01.743Z,47.83
2022-12-18T21:08:05.228Z,46.37
2022-12-18T21:11:35.196Z,48.58
2022-12-18T21:14:38.365Z,45.78
2022-12-18T21:17:45.118Z,49.20
2022-12-18T21:20:49.148Z,46.67
2022-12-18T21:23:52.397Z,52.22
2022-12-18T21:26:55.827Z,47.35
2022-12-18T21:29:59.206Z,51.60
2022-12-18T21:33:02.413Z,53.50
2022-12-18T21:36:09.455Z,52.60
2022-12-18T21:39:13.451Z,56.40
2022-12-18T21:42:34.891Z,58.65
2022-12-18T21:45:38.203Z,55.30
2022-12-18T21:48:43.424Z,54.80
2022-12-18T21:51:47.945Z,60.97
2022-12-18T21:54:51.279Z,59.45
2022-12-18T21:57:54.728Z,57.92
2022-12-18T22:00:58.023Z,56.97
2022-12-18T22:04:01.192Z,65.25
2022-12-18T22:07:05.460Z,52.65
2022-12-18T22:10:09.078Z,58.23
2022-12-18T22:13:12.379Z,61.70
2022-12-18T22:16:15.559Z,58.28
2022-12-18T22:19:19.631Z,58.20
2022-12-18T22:22:22.907Z,56.00
2022-12-18T22:25:26.291Z,62.15
2022-12-18T22:28:50.651Z,57.70
2022-12-18T22:31:53.898Z,59.03
2022-12-18T22:35:00.551Z,59.45
2022-12-18T22:38:08.344Z,56.15
2022-12-18T22:41:11.486Z,53.20
2022-12-18T22:44:15.024Z,59.88
2022-12-18T22:47:24.251Z,59.00
2022-12-18T22:50:33.919Z,61.47
2022-12-18T22:53:37.015Z,62.88
2022-12-18T22:56:40.559Z,57.50
2022-12-18T22:59:43.795Z,58.45
2022-12-18T23:02:47.182Z,66.50
2022-12-18T23:05:50.608Z,58.70
2022-12-18T23:08:58.012Z,56.22
2022-12-18T23:12:01.425Z,63.00
2022-12-18T23:15:05.923Z,60.20
2022-12-18T23:18:09.128Z,62.22
2022-12-18T23:21:16.071Z,58.67
2022-12-18T23:24:20.470Z,63.33
2022-12-18T23:27:23.608Z,59.45
2022-12-18T23:30:27.031Z,64.85
2022-12-18T23:33:30.280Z,61.63
2022-12-18T23:36:45.308Z,59.78
2022-12-18T23:39:49.904Z,67.25
2022-12-18T23:42:53.085Z,62.70
2022-12-18T23:45:56.375Z,61.85
2022-12-18T23:49:01.505Z,62.88
2022-12-18T23:52:04.775Z,63.10
2022-12-18T23:55:08.380Z,70.55
2022-12-18T23:58:18.570Z,70.65
